createdAt,value
2019-01-31T00:00:17.637Z,21.13
2019-01-31T00:05:44.462Z,19.13
2019-01-31T00:11:05.701Z,20.23
2019-01-31T00:16:58.786Z,18.33
2019-01-31T00:22:41.769Z,19.60
2019-01-31T00:28:03.397Z,22.10
2019-01-31T00:33:27.086Z,24.10
2019-01-31T00:39:03.366Z,21.23
2019-01-31T00:44:55.441Z,22.10
2019-01-31T00:50:17.904Z,21.00
2019-01-31T00:55:49.516Z,20.87
2019-01-31T01:01:23.277Z,21.33
2019-01-31T01:07:14.958Z,21.40
2019-01-31T01:13:00.771Z,21.57
2019-01-31T01:18:32.990Z,16.70
2019-01-31T01:23:54.033Z,20.33
2019-01-31T01:30:01.925Z,21.20
2019-01-31T01:35:38.886Z,17.23
2019-01-31T01:41:35.389Z,20.40
2019-01-31T01:47:17.348Z,18.33
2019-01-31T01:53:04.229Z,20.57
2019-01-31T01:59:01.525Z,22.37
2019-01-31T02:04:41.654Z,21.23
2019-01-31T02:10:42.692Z,21.13
2019-01-31T02:16:29.439Z,19.67
2019-01-31T02:21:59.454Z,19.97
2019-01-31T02:27:22.726Z,31.33
2019-01-31T02:32:51.838Z,25.55
2019-01-31T02:38:48.492Z,21.97
2019-01-31T02:44:34.372Z,26.07
2019-01-31T02:50:03.990Z,25.20
2019-01-31T02:55:26.525Z,26.20
2019-01-31T03:00:59.195Z,29.07
2019-01-31T03:07:21.924Z,26.17
2019-01-31T03:12:39.599Z,27.63
2019-01-31T03:18:08.687Z,26.23
2019-01-31T03:23:44.036Z,25.30
2019-01-31T03:29:22.409Z,27.57
2019-01-31T03:35:04.427Z,27.83
2019-01-31T03:40:46.405Z,25.50
2019-01-31T03:46:26.898Z,29.03
2019-01-31T03:52:21.129Z,30.03
2019-01-31T03:57:47.128Z,32.97
2019-01-31T04:03:06.173Z,32.40
2019-01-31T04:08:17.190Z,26.68
2019-01-31T04:13:31.311Z,32.38
2019-01-31T04:18:44.332Z,29.70
2019-01-31T04:23:55.237Z,32.83
2019-01-31T04:29:02.868Z,28.27
2019-01-31T04:34:14.984Z,28.20
2019-01-31T04:39:26.763Z,28.33
2019-01-31T04:44:38.505Z,23.77
2019-01-31T04:49:49.628Z,24.12
2019-01-31T04:54:55.787Z,29.70
2019-01-31T05:00:05.420Z,28.27
2019-01-31T05:05:16.807Z,29.23
2019-01-31T05:10:26.727Z,29.80
2019-01-31T05:15:34.987Z,28.50
2019-01-31T05:20:44.264Z,27.07
2019-01-31T05:25:53.337Z,34.00
2019-01-31T05:31:27.662Z,27.03
2019-01-31T05:36:54.829Z,28.50
2019-01-31T05:42:05.823Z,32.03
2019-01-31T05:47:15.699Z,35.50
2019-01-31T05:52:23.360Z,38.37
2019-01-31T05:57:33.352Z,36.37
2019-01-31T06:02:46.086Z,40.03
2019-01-31T06:07:58.380Z,42.73
2019-01-31T06:13:09.072Z,41.27
2019-01-31T06:18:18.988Z,38.80
2019-01-31T06:23:27.993Z,43.28
2019-01-31T06:28:43.484Z,44.00
2019-01-31T06:33:58.979Z,45.47
2019-01-31T06:39:12.741Z,43.20
2019-01-31T06:44:23.138Z,59.30
2019-01-31T06:49:35.045Z,62.07
2019-01-31T06:54:42.141Z,53.73
2019-01-31T06:59:53.028Z,57.83
2019-01-31T07:05:07.818Z,90.80
2019-01-31T07:10:28.885Z,75.07
2019-01-31T07:15:38.777Z,67.67
2019-01-31T07:20:47.724Z,64.50
2019-01-31T07:25:57.720Z,63.83
2019-01-31T07:31:10.318Z,61.93
2019-01-31T07:36:22.887Z,54.10
2019-01-31T07:41:41.378Z,58.23
2019-01-31T07:46:49.000Z,65.10
2019-01-31T07:51:58.049Z,54.03
2019-01-31T07:57:10.884Z,57.63
2019-01-31T08:02:27.526Z,60.60
2019-01-31T08:07:36.449Z,61.03
2019-01-31T08:12:48.806Z,54.67
2019-01-31T08:18:00.581Z,55.78
2019-01-31T08:23:08.425Z,51.18
2019-01-31T08:28:19.212Z,59.67
2019-01-31T08:33:30.085Z,58.83
2019-01-31T08:38:36.952Z,69.97
2019-01-31T08:43:46.730Z,70.97
2019-01-31T08:48:59.427Z,60.33
2019-01-31T08:54:12.138Z,61.03
2019-01-31T08:59:24.229Z,60.73
2019-01-31T09:04:43.070Z,64.80
2019-01-31T09:09:54.893Z,57.03
2019-01-31T09:15:06.480Z,61.80
2019-01-31T09:20:20.431Z,58.23
2019-01-31T09:26:05.316Z,59.30
2019-01-31T09:31:48.835Z,62.30
2019-01-31T09:37:24.873Z,53.03
2019-01-31T09:42:56.900Z,49.42
2019-01-31T09:48:35.569Z,51.23
2019-01-31T09:54:03.109Z,52.70
2019-01-31T09:59:24.537Z,59.60
2019-01-31T10:05:00.324Z,50.37
2019-01-31T10:10:24.896Z,45.23
2019-01-31T10:16:13.797Z,48.80
2019-01-31T10:22:27.413Z,44.63
2019-01-31T10:28:23.370Z,69.13
2019-01-31T10:33:44.325Z,38.50
2019-01-31T10:39:21.381Z,42.03
2019-01-31T10:45:06.052Z,51.40
2019-01-31T10:50:31.604Z,89.52
2019-01-31T10:56:29.346Z,70.53
2019-01-31T11:02:41.711Z,74.47
2019-01-31T11:08:33.156Z,44.33
2019-01-31T11:14:20.706Z,43.40
2019-01-31T11:19:45.044Z,47.30
2019-01-31T11:25:21.050Z,43.08
2019-01-31T11:30:49.224Z,47.07
2019-01-31T11:36:23.394Z,45.80
2019-01-31T11:41:54.570Z,46.27
2019-01-31T11:47:30.627Z,45.07
2019-01-31T11:53:23.113Z,49.53
2019-01-31T11:59:02.694Z,47.23
2019-01-31T12:04:12.519Z,42.83
2019-01-31T12:09:22.156Z,60.92
2019-01-31T12:14:35.140Z,54.60
2019-01-31T12:19:44.487Z,45.00
2019-01-31T12:24:51.905Z,49.80
2019-01-31T12:30:00.017Z,41.40
2019-01-31T12:35:07.535Z,41.80
2019-01-31T12:40:17.990Z,46.23
2019-01-31T12:45:25.772Z,44.47
2019-01-31T12:50:35.493Z,40.03
2019-01-31T12:55:44.719Z,44.87
2019-01-31T13:00:55.601Z,49.07
2019-01-31T13:06:07.411Z,44.77
2019-01-31T13:11:18.573Z,45.98
2019-01-31T13:16:28.962Z,45.52
2019-01-31T13:21:41.578Z,47.37
2019-01-31T13:26:53.287Z,40.10
2019-01-31T13:32:04.986Z,33.47
2019-01-31T13:37:17.509Z,41.57
2019-01-31T13:42:28.324Z,37.05
2019-01-31T13:47:38.296Z,36.30
2019-01-31T13:52:48.035Z,35.60
2019-01-31T13:57:57.964Z,31.47
2019-01-31T14:03:03.860Z,28.97
2019-01-31T14:08:12.616Z,29.60
2019-01-31T14:13:25.121Z,33.37
2019-01-31T14:18:39.560Z,30.27
2019-01-31T14:23:51.212Z,32.97
2019-01-31T14:29:03.113Z,36.63
2019-01-31T14:34:12.590Z,31.03
2019-01-31T14:39:23.342Z,31.97
2019-01-31T14:44:36.260Z,33.03
2019-01-31T14:49:48.772Z,30.87
2019-01-31T14:55:00.390Z,30.93
2019-01-31T15:00:14.502Z,30.23
2019-01-31T15:05:23.505Z,31.33
2019-01-31T15:10:33.487Z,32.60
2019-01-31T15:15:44.303Z,28.43
2019-01-31T15:20:56.898Z,30.50
2019-01-31T15:26:08.962Z,29.87
2019-01-31T15:31:16.726Z,26.95
2019-01-31T15:36:23.528Z,26.60
2019-01-31T15:41:32.029Z,28.37
2019-01-31T15:46:43.732Z,27.80
2019-01-31T15:51:51.789Z,29.67
2019-01-31T15:57:00.673Z,31.00
2019-01-31T16:02:09.800Z,30.45
2019-01-31T16:07:20.780Z,39.73
2019-01-31T16:12:35.157Z,33.13
2019-01-31T16:17:47.846Z,32.53
2019-01-31T16:23:00.003Z,30.73
2019-01-31T16:28:08.165Z,32.10
2019-01-31T16:33:18.016Z,35.70
2019-01-31T16:38:27.524Z,32.58
2019-01-31T16:43:37.360Z,34.67
2019-01-31T16:48:47.183Z,36.03
2019-01-31T16:53:57.128Z,34.57
2019-01-31T16:59:08.045Z,39.47
2019-01-31T17:04:20.749Z,39.58
2019-01-31T17:09:33.526Z,40.78
2019-01-31T17:14:44.328Z,35.80
2019-01-31T17:19:58.019Z,32.10
2019-01-31T17:25:11.828Z,35.07
2019-01-31T17:30:23.526Z,28.67
2019-01-31T17:35:31.268Z,30.67
2019-01-31T17:40:43.121Z,36.13
2019-01-31T17:45:56.718Z,32.87
2019-01-31T17:51:04.802Z,26.37
2019-01-31T17:56:15.673Z,27.77
2019-01-31T18:01:25.944Z,26.90
2019-01-31T18:06:39.523Z,29.95
2019-01-31T18:11:51.140Z,29.00
2019-01-31T18:17:03.725Z,30.03
2019-01-31T18:22:11.027Z,27.73
2019-01-31T18:27:20.009Z,28.73
2019-01-31T18:32:29.228Z,32.87
2019-01-31T18:37:40.226Z,28.63
2019-01-31T18:42:51.131Z,27.63
2019-01-31T18:48:03.846Z,31.20
2019-01-31T18:53:13.717Z,33.63
2019-01-31T18:58:21.421Z,29.73
2019-01-31T19:03:32.230Z,32.93
2019-01-31T19:08:45.832Z,37.07
2019-01-31T19:13:56.648Z,49.27
2019-01-31T19:19:11.372Z,42.87
2019-01-31T19:24:20.549Z,41.53
2019-01-31T19:29:31.311Z,39.83
2019-01-31T19:34:47.113Z,39.23
2019-01-31T19:39:57.047Z,36.20
2019-01-31T19:45:05.964Z,42.40
2019-01-31T19:50:13.891Z,39.18
2019-01-31T19:55:23.174Z,40.60
2019-01-31T20:00:30.782Z,44.43
2019-01-31T20:05:40.031Z,49.00
2019-01-31T20:10:53.764Z,44.20
2019-01-31T20:16:02.893Z,44.33
2019-01-31T20:21:14.510Z,44.33
2019-01-31T20:26:25.194Z,45.15
2019-01-31T20:31:35.077Z,52.57
2019-01-31T20:36:44.631Z,48.87
2019-01-31T20:41:54.752Z,50.03
2019-01-31T20:47:07.370Z,51.03
2019-01-31T20:52:19.952Z,51.18
2019-01-31T20:57:32.164Z,49.23
2019-01-31T21:02:44.706Z,43.23
2019-01-31T21:07:56.446Z,44.87
2019-01-31T21:13:06.024Z,44.27
2019-01-31T21:18:18.799Z,46.10
2019-01-31T21:23:32.550Z,41.85
2019-01-31T21:28:50.471Z,46.03
2019-01-31T21:33:58.822Z,37.00
2019-01-31T21:39:11.766Z,38.97
2019-01-31T21:44:21.282Z,44.47
2019-01-31T21:50:33.608Z,39.30
2019-01-31T21:55:49.094Z,36.77
2019-01-31T22:01:00.170Z,41.97
2019-01-31T22:06:29.970Z,36.70
2019-01-31T22:11:41.167Z,41.43
2019-01-31T22:16:51.975Z,35.40
2019-01-31T22:21:58.809Z,36.83
2019-01-31T22:27:12.552Z,38.20
2019-01-31T22:32:20.599Z,37.27
2019-01-31T22:37:30.097Z,38.33
2019-01-31T22:42:38.336Z,34.17
2019-01-31T22:47:45.237Z,33.10
2019-01-31T22:52:57.940Z,31.37
2019-01-31T22:58:07.115Z,27.83
2019-01-31T23:03:20.678Z,28.50
2019-01-31T23:08:34.022Z,27.03
2019-01-31T23:13:44.884Z,29.10
2019-01-31T23:18:52.682Z,26.30
2019-01-31T23:24:07.974Z,27.73
2019-01-31T23:29:15.271Z,31.07
2019-01-31T23:34:25.264Z,29.90
2019-01-31T23:39:36.466Z,23.80
2019-01-31T23:44:46.954Z,28.73
2019-01-31T23:49:55.877Z,27.70
2019-01-31T23:55:06.705Z,24.30
